Weather forecasts are calculated to a 100 metre elevation grid, providing ultimate accuracy for high elevation routes. See the “severe weather” column for any noteworthy conditions.
For use of the snow symbols: HWC = high water content (wet snow). MWC = moderate water content. NWC = low water content (powder type). Confidence of snow accumulation is increased during incidence of NWC.


Time. Apparent Temperature Rain Cloud Dir Avg. Wind Gust. Wind Snow Accum. Chance of settle. Freezing height(beta) Dew Point Severe Weather
Sat 21st 16:00 14.5°C 0.0 mm 57% 10 mph 19 mph 0.00 cm % 1,451m 6.7°C
17:00 13.9°C 0.0 mm 58% 9 mph 17 mph 0.00 cm % 1,394m 6.5°C
18:00 13.3°C 0.0 mm 61% 9 mph 18 mph 0.00 cm % 1,329m 6.3°C
19:00 12.4°C 0.0 mm 83% 9 mph 18 mph 0.00 cm % 1,240m 5.8°C
20:00 10.9°C 0.0 mm 87% 10 mph 19 mph 0.00 cm % 1,448m 4.9°C
21:00 9.5°C 0.0 mm 96% 10 mph 20 mph 0.00 cm % 1,260m 4.1°C
22:00 8.8°C 0.0 mm 85% 10 mph 18 mph 0.00 cm % 1,176m 4.0°C
23:00 8.3°C 0.0 mm 83% 9 mph 18 mph 0.00 cm % 1,108m 3.9°C
Sun 22nd 00:00 8.1°C 0.0 mm 85% 9 mph 17 mph 0.00 cm % 1,081m 3.7°C
01:00 7.9°C 0.0 mm 100% 9 mph 18 mph 0.00 cm % 1,047m 3.7°C
02:00 8.0°C 0.0 mm 100% 10 mph 19 mph 0.00 cm % 1,333m 4.0°C
03:00 7.1°C 0.0 mm 100% 10 mph 19 mph 0.00 cm % 1,188m 4.1°C
04:00 6.8°C 0.0 mm 99% 11 mph 21 mph 0.00 cm % 1,131m 4.0°C
05:00 7.2°C 0.0 mm 99% 10 mph 19 mph 0.00 cm % 1,196m 4.0°C
06:00 7.8°C 0.0 mm 99% 10 mph 19 mph 0.00 cm % 1,305m 4.6°C
07:00 8.8°C 0.0 mm 100% 10 mph 19 mph 0.00 cm % 1,458m 5.4°C
08:00 9.8°C 0.0 mm 100% 9 mph 17 mph 0.00 cm % 1,627m 6.4°C
09:00 11.0°C 0.0 mm 100% 8 mph 15 mph 0.00 cm % 1,840m 7.4°C
10:00 11.4°C rainfall in vicinity 0.2 mm 100% 8 mph 16 mph 0.00 cm % 1,902m 8.0°C
11:00 11.4°C rainfall in vicinity 0.1 mm 100% 7 mph 14 mph 0.00 cm % 1,906m 8.2°C
12:00 11.5°C 0.0 mm 100% 8 mph 15 mph 0.00 cm % 1,919m 8.1°C
13:00 11.8°C 0.0 mm 100% 10 mph 19 mph 0.00 cm % 1,967m 8.0°C
14:00 12.1°C rainfall in vicinity 0.2 mm 100% 11 mph 21 mph 0.00 cm % 2,013m 8.3°C
15:00 12.3°C 0.0 mm 100% 10 mph 19 mph 0.00 cm % 2,055m 8.3°C
16:00 12.3°C 0.0 mm 100% 10 mph 20 mph 0.00 cm % 1,640m 8.1°C
17:00 12.1°C 0.0 mm 100% 9 mph 17 mph 0.00 cm % 2,013m 8.1°C
18:00 12.0°C 0.0 mm 100% 8 mph 16 mph 0.00 cm % 1,994m 8.4°C
19:00 11.6°C 0.0 mm 100% 9 mph 17 mph 0.00 cm % 1,925m 8.0°C
20:00 11.0°C 0.0 mm 100% 7 mph 14 mph 0.00 cm % 1,827m 7.8°C
21:00 10.6°C 0.0 mm 100% 7 mph 14 mph 0.00 cm % 1,758m 8.0°C
22:00 10.1°C 0.0 mm 100% 7 mph 14 mph 0.00 cm % 2,028m 8.1°C
23:00 9.9°C 0.0 mm 99% 7 mph 14 mph 0.00 cm % 1,972m 7.9°C
Mon 23rd 00:00 9.6°C 0.0 mm 94% 8 mph 15 mph 0.00 cm % 1,605m 7.0°C
01:00 9.3°C 0.0 mm 70% 8 mph 16 mph 0.00 cm % 1,555m 6.3°C
02:00 9.0°C 0.0 mm 76% 8 mph 15 mph 0.00 cm % 1,502m 5.8°C
03:00 8.7°C 0.0 mm 78% 8 mph 15 mph 0.00 cm % 1,446m 5.7°C
04:00 8.5°C 0.0 mm 83% 7 mph 13 mph 0.00 cm % 1,412m 5.7°C
05:00 8.6°C 0.0 mm 86% 6 mph 11 mph 0.00 cm % 1,425m 5.8°C
06:00 9.1°C 0.0 mm 88% 5 mph 10 mph 0.00 cm % 1,517m 5.7°C
07:00 9.6°C 0.0 mm 100% 5 mph 10 mph 0.00 cm % 1,283m 5.2°C
08:00 9.9°C 0.0 mm 100% 6 mph 11 mph 0.00 cm % 1,325m 4.7°C
09:00 10.0°C 0.0 mm 100% 6 mph 13 mph 0.00 cm % 1,330m 4.6°C
10:00 10.2°C 0.0 mm 100% 7 mph 14 mph 0.00 cm % 1,357m 4.8°C
11:00 10.4°C 0.0 mm 100% 9 mph 18 mph 0.00 cm % 1,388m 5.2°C
12:00 10.5°C 0.0 mm 100% 9 mph 18 mph 0.00 cm % 1,395m 5.1°C
13:00 10.3°C 0.0 mm 100% 10 mph 20 mph 0.00 cm % 1,370m 4.7°C
14:00 9.9°C 0.0 mm 100% 11 mph 22 mph 0.00 cm % 1,313m 4.5°C
15:00 9.8°C 0.0 mm 100% 11 mph 21 mph 0.00 cm % 1,304m 4.6°C
16:00 9.3°C 0.0 mm 100% 11 mph 20 mph 0.00 cm % 1,245m 4.7°C
17:00 9.2°C 0.0 mm 100% 11 mph 21 mph 0.00 cm % 1,220m 4.8°C
18:00 8.9°C 0.0 mm 100% 11 mph 22 mph 0.00 cm % 1,480m 4.9°C
19:00 8.7°C 0.0 mm 100% 11 mph 22 mph 0.00 cm % 1,445m 5.1°C
20:00 8.3°C 0.0 mm 100% 11 mph 22 mph 0.00 cm % 1,380m 5.3°C
21:00 8.2°C 0.0 mm 100% 11 mph 21 mph 0.00 cm % 1,371m 4.8°C
22:00 8.0°C 0.0 mm 100% 12 mph 23 mph 0.00 cm % 1,337m 4.4°C
23:00 7.7°C 0.0 mm 100% 14 mph 27 mph 0.00 cm % 1,028m 3.5°C
Tue 24th 00:00 7.5°C 0.0 mm 100% 15 mph 29 mph 0.00 cm % 1,252m 3.5°C
01:00 7.3°C 0.0 mm 87% 16 mph 31 mph 0.00 cm % 1,215m 3.7°C
02:00 7.2°C 0.0 mm 77% 17 mph 32 mph 0.00 cm % 1,200m 4.0°C
03:00 7.0°C 0.0 mm 81% 17 mph 33 mph 0.00 cm % 1,169m 3.6°C
04:00 7.1°C 0.0 mm 86% 17 mph 33 mph 0.00 cm % 1,183m 3.5°C
05:00 7.2°C 0.0 mm 89% 18 mph 34 mph 0.00 cm % 1,194m 3.6°C
06:00 7.5°C 0.0 mm 88% 18 mph 35 mph 0.00 cm % 1,244m 3.7°C Slight Gale
07:00 7.9°C 0.0 mm 50% 18 mph 36 mph 0.00 cm % 1,050m 3.7°C Slight Gale
08:00 8.2°C 0.0 mm 41% 19 mph 36 mph 0.00 cm % 1,099m 3.2°C Slight Gale
09:00 8.5°C 0.0 mm 33% 18 mph 35 mph 0.00 cm % 1,139m 3.1°C
10:00 8.9°C 0.0 mm 26% 17 mph 33 mph 0.00 cm % 1,190m 3.3°C
11:00 9.1°C 0.0 mm 23% 17 mph 33 mph 0.00 cm % 1,215m 3.5°C
12:00 9.3°C 0.0 mm 20% 17 mph 33 mph 0.00 cm % 1,237m 3.7°C
13:00 9.3°C 0.0 mm 7% 17 mph 33 mph 0.00 cm % 1,237m 3.9°C
14:00 9.4°C 0.0 mm 5% 16 mph 30 mph 0.00 cm % 1,257m 3.6°C
15:00 9.5°C 0.0 mm 3% 14 mph 27 mph 0.00 cm % 953m 3.3°C
16:00 9.8°C 0.0 mm 3% 13 mph 26 mph 0.00 cm % 983m 3.4°C
17:00 10.2°C 0.0 mm 4% 14 mph 26 mph 0.00 cm % 1,017m 3.8°C
18:00 10.0°C 0.0 mm 5% 15 mph 29 mph 0.00 cm % 1,333m 4.4°C
19:00 9.6°C 0.0 mm 7% 14 mph 27 mph 0.00 cm % 1,283m 4.4°C
20:00 9.2°C 0.0 mm 13% 12 mph 22 mph 0.00 cm % 1,230m 4.2°C
21:00 8.7°C 0.0 mm 42% 10 mph 20 mph 0.00 cm % 1,156m 4.1°C
22:00 8.6°C 0.0 mm 56% 11 mph 22 mph 0.00 cm % 1,147m 4.2°C
23:00 8.8°C 0.0 mm 65% 12 mph 24 mph 0.00 cm % 1,167m 4.4°C
Wed 25th 00:00 8.4°C 0.0 mm 71% 13 mph 25 mph 0.00 cm % 1,392m 4.6°C
01:00 8.3°C 0.0 mm 99% 13 mph 26 mph 0.00 cm % 1,383m 4.5°C
02:00 7.8°C 0.0 mm 60% 12 mph 24 mph 0.00 cm % 1,302m 4.4°C
03:00 7.5°C 0.0 mm 73% 13 mph 24 mph 0.00 cm % 1,242m 3.7°C
04:00 7.5°C 0.0 mm 80% 12 mph 22 mph 0.00 cm % 996m 3.3°C
05:00 7.7°C 0.0 mm 84% 12 mph 23 mph 0.00 cm % 1,024m 2.9°C
06:00 8.4°C 0.0 mm 86% 13 mph 26 mph 0.00 cm % 1,121m 3.2°C
07:00 9.2°C 0.0 mm 100% 14 mph 26 mph 0.00 cm % 1,224m 4.2°C
08:00 9.5°C 0.0 mm 100% 14 mph 28 mph 0.00 cm % 1,272m 4.5°C
09:00 9.3°C rainfall in vicinity 0.1 mm 100% 19 mph 36 mph 0.00 cm % 1,552m 5.3°C Slight Gale
10:00 9.7°C rainfall in vicinity 0.2 mm 96% 21 mph 40 mph 0.00 cm % 1,608m 6.1°C Slight Gale
11:00 10.4°C rainfall in vicinity 0.2 mm 84% 22 mph 43 mph 0.00 cm % 1,390m 5.8°C Slight Gale
12:00 10.2°C 0.0 mm 72% 21 mph 41 mph 0.00 cm % 1,355m 5.4°C Slight Gale
13:00 10.4°C 0.0 mm 11% 20 mph 39 mph 0.00 cm % 1,380m 5.0°C Slight Gale
14:00 10.5°C 0.0 mm 14% 21 mph 40 mph 0.00 cm % 1,405m 4.5°C Slight Gale
15:00 10.7°C 0.0 mm 15% 21 mph 41 mph 0.00 cm % 1,070m 3.9°C Slight Gale